createdAt,value
2022-08-11T00:00:37.728Z,76.00
2022-08-11T00:01:37.723Z,76.10
2022-08-11T00:02:37.871Z,75.70
2022-08-11T00:03:43.237Z,76.00
2022-08-11T00:04:37.692Z,75.29
2022-08-11T00:05:37.643Z,75.39
2022-08-11T00:06:37.650Z,75.19
2022-08-11T00:07:37.610Z,75.19
2022-08-11T00:08:37.593Z,75.29
2022-08-11T00:09:39.032Z,76.00
2022-08-11T00:10:37.596Z,75.59
2022-08-11T00:11:37.546Z,76.03
2022-08-11T00:12:37.627Z,76.24
2022-08-11T00:13:37.520Z,76.54
2022-08-11T00:14:38.070Z,76.44
2022-08-11T00:15:37.494Z,76.95
2022-08-11T00:16:37.510Z,77.25
2022-08-11T00:17:37.505Z,77.15
2022-08-11T00:18:37.455Z,77.05
2022-08-11T00:20:13.259Z,77.36
2022-08-11T00:20:37.469Z,77.05
2022-08-11T00:22:04.637Z,76.54
2022-08-11T00:22:37.637Z,76.34
2022-08-11T00:23:37.390Z,76.34
2022-08-11T00:24:53.649Z,76.34
2022-08-11T00:25:37.398Z,77.45
2022-08-11T00:26:37.370Z,77.15
2022-08-11T00:27:37.366Z,76.95
2022-08-11T00:28:37.336Z,76.85
2022-08-11T00:29:37.307Z,76.75
2022-08-11T00:30:37.327Z,76.85
2022-08-11T00:31:37.302Z,77.36
2022-08-11T00:32:37.534Z,77.15
2022-08-11T00:33:44.393Z,76.95
2022-08-11T00:34:37.341Z,76.44
2022-08-11T00:35:50.774Z,76.44
2022-08-11T00:36:37.213Z,76.34
2022-08-11T00:37:37.257Z,77.05
2022-08-11T00:38:37.200Z,76.95
2022-08-11T00:39:37.220Z,77.25
2022-08-11T00:40:37.188Z,77.66
2022-08-11T00:41:37.141Z,77.49
2022-08-11T00:42:37.331Z,77.29
2022-08-11T00:43:37.124Z,77.39
2022-08-11T00:44:37.105Z,77.90
2022-08-11T00:45:37.083Z,77.59
2022-08-11T00:46:37.101Z,77.63
2022-08-11T00:47:37.080Z,78.44
2022-08-11T00:48:37.061Z,78.34
2022-08-11T00:49:37.068Z,78.85
2022-08-11T00:50:37.014Z,78.55
2022-08-11T00:52:03.980Z,79.05
2022-08-11T00:52:37.264Z,79.16
2022-08-11T00:53:36.982Z,78.85
2022-08-11T00:54:37.019Z,78.55
2022-08-11T00:55:36.947Z,78.34
2022-08-11T00:56:36.955Z,78.75
2022-08-11T00:57:38.633Z,78.44
2022-08-11T00:58:36.952Z,79.05
2022-08-11T00:59:36.899Z,78.24
2022-08-11T01:00:36.944Z,78.04
2022-08-11T01:01:36.901Z,78.44
2022-08-11T01:02:37.029Z,77.83
2022-08-11T01:03:36.868Z,78.14
2022-08-11T01:04:36.834Z,78.75
2022-08-11T01:05:36.946Z,78.64
2022-08-11T01:06:36.816Z,77.94
2022-08-11T01:08:02.766Z,78.14
2022-08-11T01:08:36.775Z,77.53
2022-08-11T01:09:36.790Z,78.04
2022-08-11T01:10:36.743Z,77.53
2022-08-11T01:11:36.729Z,78.04
2022-08-11T01:12:36.958Z,78.44
2022-08-11T01:13:36.699Z,77.94
2022-08-11T01:14:36.724Z,78.04
2022-08-11T01:15:36.692Z,78.34
2022-08-11T01:16:36.672Z,78.24
2022-08-11T01:17:36.675Z,78.58
2022-08-11T01:18:36.639Z,78.38
2022-08-11T01:20:39.756Z,78.17
2022-08-11T01:20:50.961Z,78.38
2022-08-11T01:21:36.597Z,78.48
2022-08-11T01:22:36.688Z,78.28
2022-08-11T01:23:36.589Z,78.58
2022-08-11T01:24:36.586Z,78.58
2022-08-11T01:25:56.955Z,78.78
2022-08-11T01:26:36.533Z,78.68
2022-08-11T01:27:36.512Z,78.48
2022-08-11T01:28:36.495Z,78.89
2022-08-11T01:29:36.513Z,78.38
2022-08-11T01:30:36.493Z,79.09
2022-08-11T01:31:36.514Z,78.68
2022-08-11T01:32:36.636Z,78.58
2022-08-11T01:33:36.428Z,78.78
2022-08-11T01:34:36.420Z,78.38
2022-08-11T01:35:37.272Z,78.48
2022-08-11T01:36:36.427Z,79.33
2022-08-11T01:37:36.398Z,79.23
2022-08-11T01:38:36.396Z,79.43
2022-08-11T01:39:36.541Z,79.43
2022-08-11T01:40:36.334Z,80.04
2022-08-11T01:41:36.325Z,80.15
2022-08-11T01:42:36.440Z,80.45
2022-08-11T01:43:36.325Z,80.35
2022-08-11T01:44:36.315Z,80.45
2022-08-11T01:45:36.284Z,80.24
2022-08-11T01:46:36.247Z,79.94
2022-08-11T01:47:36.262Z,80.45
2022-08-11T01:48:36.228Z,80.76
2022-08-11T01:50:09.556Z,80.76
2022-08-11T01:50:36.218Z,80.76
2022-08-11T01:51:36.184Z,81.30
2022-08-11T01:52:36.195Z,80.79
2022-08-11T01:53:36.171Z,80.99
2022-08-11T01:54:36.237Z,80.38
2022-08-11T01:55:36.143Z,80.18
2022-08-11T01:56:36.115Z,80.90
2022-08-11T01:57:36.207Z,80.99
2022-08-11T01:58:43.289Z,82.01
2022-08-11T01:59:36.146Z,81.74
2022-08-11T02:00:36.121Z,81.95
2022-08-11T02:01:36.048Z,81.74
2022-08-11T02:02:36.113Z,82.46
2022-08-11T02:03:36.042Z,81.44
2022-08-11T02:04:36.043Z,81.54
2022-08-11T02:05:36.016Z,81.74
2022-08-11T02:06:35.981Z,81.34
2022-08-11T02:07:36.002Z,81.24
2022-08-11T02:08:35.984Z,81.24
2022-08-11T02:09:35.959Z,80.83
2022-08-11T02:10:38.275Z,80.73
2022-08-11T02:11:37.292Z,81.04
2022-08-11T02:12:35.913Z,80.83
2022-08-11T02:13:36.630Z,81.44
2022-08-11T02:14:35.886Z,81.65
2022-08-11T02:15:35.870Z,81.65
2022-08-11T02:16:35.839Z,81.44
2022-08-11T02:17:35.840Z,81.85
2022-08-11T02:18:35.847Z,82.80
2022-08-11T02:19:35.810Z,82.09
2022-08-11T02:20:35.798Z,81.99
2022-08-11T02:21:35.785Z,81.79
2022-08-11T02:22:35.772Z,82.29
2022-08-11T02:24:06.069Z,81.79
2022-08-11T02:24:35.750Z,81.58
2022-08-11T02:25:35.753Z,82.15
2022-08-11T02:26:35.715Z,81.79
2022-08-11T02:27:35.711Z,81.85
2022-08-11T02:28:40.192Z,81.54
2022-08-11T02:29:35.714Z,81.44
2022-08-11T02:30:35.682Z,81.88
2022-08-11T02:32:15.461Z,81.88
2022-08-11T02:32:35.704Z,81.34
2022-08-11T02:33:36.545Z,81.34
2022-08-11T02:34:35.635Z,81.85
2022-08-11T02:35:35.590Z,81.38
2022-08-11T02:36:35.576Z,80.73
2022-08-11T02:37:35.590Z,80.63
2022-08-11T02:38:35.670Z,80.56
2022-08-11T02:39:35.568Z,80.63
2022-08-11T02:40:35.521Z,80.97
2022-08-11T02:41:35.536Z,80.87
2022-08-11T02:42:36.168Z,80.36
2022-08-11T02:43:35.481Z,80.66
2022-08-11T02:44:35.471Z,80.56
2022-08-11T02:45:35.525Z,81.48
2022-08-11T02:46:35.470Z,81.27
2022-08-11T02:47:35.435Z,80.97
2022-08-11T02:48:35.406Z,81.68
2022-08-11T02:49:35.402Z,81.79
2022-08-11T02:50:35.412Z,81.99
2022-08-11T02:51:35.393Z,81.38
2022-08-11T02:52:35.363Z,81.68
2022-08-11T02:53:35.347Z,81.88
2022-08-11T02:54:35.358Z,81.79
2022-08-11T02:55:48.749Z,82.13
2022-08-11T02:56:35.308Z,82.33
2022-08-11T02:57:35.336Z,82.64
2022-08-11T02:58:35.274Z,82.43
2022-08-11T02:59:35.267Z,82.74
2022-08-11T03:00:35.277Z,82.64
2022-08-11T03:01:35.283Z,82.43
2022-08-11T03:02:35.254Z,82.74
2022-08-11T03:03:35.208Z,82.84
2022-08-11T03:04:37.831Z,82.43
2022-08-11T03:05:35.189Z,82.33
2022-08-11T03:06:35.193Z,82.13
2022-08-11T03:07:35.203Z,82.54
2022-08-11T03:08:35.150Z,82.33
2022-08-11T03:09:35.187Z,82.54
2022-08-11T03:10:35.144Z,82.23
2022-08-11T03:11:35.115Z,82.13
2022-08-11T03:12:35.112Z,82.13
2022-08-11T03:13:35.079Z,81.93
2022-08-11T03:14:35.115Z,82.43
2022-08-11T03:15:35.044Z,82.74
2022-08-11T03:16:35.036Z,82.88
2022-08-11T03:17:35.033Z,82.57
2022-08-11T03:18:35.012Z,82.07
2022-08-11T03:19:35.028Z,82.07
2022-08-11T03:20:38.190Z,81.86
2022-08-11T03:22:03.699Z,82.27
2022-08-11T03:22:35.001Z,82.07
2022-08-11T03:23:34.969Z,82.07
2022-08-11T03:24:34.919Z,82.17
2022-08-11T03:25:34.905Z,82.47
2022-08-11T03:26:34.902Z,82.88
2022-08-11T03:27:34.888Z,82.47
2022-08-11T03:28:34.898Z,82.47
2022-08-11T03:29:34.862Z,82.78
2022-08-11T03:30:34.849Z,83.39
2022-08-11T03:31:34.851Z,82.98
2022-08-11T03:32:34.821Z,82.98
2022-08-11T03:33:34.854Z,83.18
2022-08-11T03:34:34.787Z,82.78
2022-08-11T03:35:34.802Z,82.57
2022-08-11T03:36:54.520Z,82.37
2022-08-11T03:37:34.759Z,82.47
2022-08-11T03:38:34.729Z,82.88
2022-08-11T03:39:34.780Z,82.57
2022-08-11T03:40:34.735Z,82.37
2022-08-11T03:42:02.425Z,82.27
2022-08-11T03:42:34.680Z,82.47
2022-08-11T03:43:34.747Z,83.18
2022-08-11T03:44:34.655Z,83.18
2022-08-11T03:45:40.271Z,82.78
2022-08-11T03:46:34.656Z,82.27
2022-08-11T03:47:34.611Z,82.88
2022-08-11T03:48:34.597Z,82.78
2022-08-11T03:49:34.580Z,83.09
2022-08-11T03:50:34.567Z,82.68
2022-08-11T03:51:44.681Z,82.37
2022-08-11T03:52:34.553Z,82.17
2022-08-11T03:53:34.560Z,81.96
2022-08-11T03:54:34.513Z,82.57
2022-08-11T03:55:34.514Z,82.37
2022-08-11T03:56:34.488Z,82.78
2022-08-11T03:57:34.494Z,82.98
2022-08-11T03:58:39.541Z,82.47
2022-08-11T03:59:34.466Z,82.47
2022-08-11T04:00:34.436Z,82.98
2022-08-11T04:01:34.498Z,82.68
2022-08-11T04:02:34.404Z,82.47
2022-08-11T04:03:34.395Z,83.39
2022-08-11T04:04:34.484Z,83.39
2022-08-11T04:05:34.365Z,83.02
2022-08-11T04:06:34.348Z,83.33
2022-08-11T04:07:34.450Z,83.29
2022-08-11T04:08:34.646Z,83.73
2022-08-11T04:09:34.387Z,83.49
2022-08-11T04:10:34.298Z,83.29
2022-08-11T04:11:34.279Z,83.29
2022-08-11T04:12:47.175Z,83.23
2022-08-11T04:13:34.316Z,83.59
2022-08-11T04:14:34.242Z,83.09
2022-08-11T04:15:34.264Z,83.09
2022-08-11T04:16:34.216Z,83.18
2022-08-11T04:17:34.232Z,82.92
2022-08-11T04:18:34.228Z,83.29
2022-08-11T04:19:34.195Z,82.78
2022-08-11T04:20:34.270Z,83.02
2022-08-11T04:21:34.147Z,83.70
2022-08-11T04:22:34.138Z,83.49
2022-08-11T04:24:34.440Z,83.49
2022-08-11T04:24:41.870Z,84.51
2022-08-11T04:25:34.128Z,84.00
2022-08-11T04:26:34.276Z,84.55
2022-08-11T04:27:37.463Z,83.73
2022-08-11T04:28:34.058Z,83.59
2022-08-11T04:29:36.033Z,83.39
2022-08-11T04:30:34.070Z,84.20
2022-08-11T04:31:44.089Z,84.51
2022-08-11T04:32:34.007Z,84.51
2022-08-11T04:33:34.363Z,84.00
2022-08-11T04:34:33.983Z,83.70
2022-08-11T04:35:34.058Z,84.20
2022-08-11T04:36:33.965Z,84.20
2022-08-11T04:37:33.933Z,83.49
2022-08-11T04:38:33.916Z,83.90
2022-08-11T04:39:33.947Z,84.00
2022-08-11T04:40:33.933Z,84.82
2022-08-11T04:41:33.939Z,84.92
2022-08-11T04:42:34.029Z,84.51
2022-08-11T04:43:33.949Z,84.20
2022-08-11T04:44:33.837Z,84.11
2022-08-11T04:45:33.868Z,84.00
2022-08-11T04:46:33.810Z,84.20
2022-08-11T04:47:33.800Z,84.20
2022-08-11T04:48:33.872Z,84.72
2022-08-11T04:49:34.342Z,84.82
2022-08-11T04:50:33.758Z,84.82
2022-08-11T04:51:33.776Z,85.02
2022-08-11T04:52:37.827Z,84.82
2022-08-11T04:53:33.728Z,85.22
2022-08-11T04:54:33.700Z,85.22
2022-08-11T04:55:33.693Z,84.82
2022-08-11T04:56:33.703Z,85.02
2022-08-11T04:57:33.696Z,85.13
2022-08-11T04:58:33.650Z,84.92
2022-08-11T04:59:33.669Z,84.72
2022-08-11T05:00:33.652Z,84.51
2022-08-11T05:01:37.109Z,84.72
2022-08-11T05:02:33.652Z,84.51
2022-08-11T05:03:33.583Z,85.02
2022-08-11T05:04:33.596Z,85.13
2022-08-11T05:05:33.590Z,84.72
2022-08-11T05:06:33.534Z,85.13
2022-08-11T05:07:33.547Z,85.02
2022-08-11T05:08:33.520Z,85.43
2022-08-11T05:09:33.534Z,85.43
2022-08-11T05:10:33.480Z,85.43
2022-08-11T05:11:33.477Z,85.43
2022-08-11T05:12:33.534Z,85.02
2022-08-11T05:13:33.482Z,85.13
2022-08-11T05:14:33.446Z,85.22
2022-08-11T05:15:42.954Z,85.22
2022-08-11T05:16:33.431Z,85.13
2022-08-11T05:17:33.393Z,84.82
2022-08-11T05:18:33.377Z,84.92
2022-08-11T05:19:33.403Z,85.13
2022-08-11T05:20:33.351Z,86.04
2022-08-11T05:21:44.491Z,86.15
2022-08-11T05:22:33.474Z,86.24
2022-08-11T05:23:33.309Z,86.24
2022-08-11T05:24:33.295Z,86.04
2022-08-11T05:26:44.213Z,85.60
2022-08-11T05:26:52.766Z,85.80
2022-08-11T05:27:33.255Z,86.10
2022-08-11T05:28:33.245Z,85.90
2022-08-11T05:29:33.252Z,85.80
2022-08-11T05:30:34.568Z,85.69
2022-08-11T05:31:33.220Z,85.90
2022-08-11T05:32:33.338Z,86.41
2022-08-11T05:33:33.197Z,85.90
2022-08-11T05:34:33.161Z,86.10
2022-08-11T05:36:00.274Z,85.80
2022-08-11T05:36:33.128Z,85.86
2022-08-11T05:37:33.229Z,86.06
2022-08-11T05:38:33.144Z,86.77
2022-08-11T05:39:36.338Z,86.77
2022-08-11T05:40:33.086Z,86.57
2022-08-11T05:41:33.069Z,86.77
2022-08-11T05:42:33.053Z,86.98
2022-08-11T05:43:33.129Z,86.68
2022-08-11T05:44:33.062Z,87.08
2022-08-11T05:46:02.293Z,87.29
2022-08-11T05:46:33.008Z,86.98
2022-08-11T05:47:32.980Z,87.69
2022-08-11T05:48:32.999Z,87.35
2022-08-11T05:49:32.952Z,87.35
2022-08-11T05:50:33.357Z,88.06
2022-08-11T05:51:32.931Z,88.16
2022-08-11T05:52:32.915Z,87.65
2022-08-11T05:53:36.020Z,87.65
2022-08-11T05:54:32.918Z,87.51
2022-08-11T05:55:32.874Z,87.30
2022-08-11T05:56:32.861Z,87.41
2022-08-11T05:57:50.017Z,86.90
2022-08-11T05:58:33.643Z,86.29
2022-08-11T05:59:32.849Z,87.00
2022-08-11T06:00:32.815Z,86.65
2022-08-11T06:01:32.872Z,86.04
2022-08-11T06:02:32.842Z,85.74
2022-08-11T06:03:32.774Z,85.43
2022-08-11T06:04:32.807Z,85.33
2022-08-11T06:05:32.750Z,85.09
2022-08-11T06:06:32.732Z,85.39
2022-08-11T06:07:47.201Z,85.70
2022-08-11T06:08:32.706Z,85.80
2022-08-11T06:09:32.714Z,84.99
2022-08-11T06:10:32.675Z,85.09
2022-08-11T06:11:42.971Z,85.05
2022-08-11T06:12:32.669Z,84.74
2022-08-11T06:13:32.634Z,84.23
2022-08-11T06:14:32.656Z,84.23
2022-08-11T06:15:32.606Z,84.74
2022-08-11T06:16:32.619Z,84.50
2022-08-11T06:17:38.682Z,84.70
2022-08-11T06:18:32.574Z,83.99
2022-08-11T06:19:32.572Z,83.99
2022-08-11T06:20:32.539Z,84.09
2022-08-11T06:21:32.522Z,83.95
2022-08-11T06:22:32.526Z,83.95
2022-08-11T06:23:32.501Z,83.54
2022-08-11T06:24:32.505Z,84.16
2022-08-11T06:25:32.489Z,83.24
2022-08-11T06:26:44.657Z,82.39
2022-08-11T06:27:32.441Z,81.68
2022-08-11T06:28:32.436Z,81.48
2022-08-11T06:29:37.784Z,83.00
2022-08-11T06:30:32.442Z,83.77
2022-08-11T06:31:32.389Z,81.74
2022-08-11T06:32:32.499Z,81.20
2022-08-11T06:33:32.359Z,81.06
2022-08-11T06:34:32.346Z,80.11
2022-08-11T06:35:32.354Z,79.80
2022-08-11T06:36:32.371Z,79.57
2022-08-11T06:37:36.393Z,78.11
2022-08-11T06:38:32.286Z,77.91
2022-08-11T06:39:32.297Z,78.17
2022-08-11T06:40:32.290Z,77.87
2022-08-11T06:41:32.279Z,77.67
2022-08-11T06:42:32.224Z,78.38
2022-08-11T06:43:32.217Z,77.53
2022-08-11T06:44:32.236Z,78.14
2022-08-11T06:45:32.192Z,77.73
2022-08-11T06:46:32.227Z,77.43
2022-08-11T06:47:32.166Z,77.53
2022-08-11T06:48:32.161Z,77.13
2022-08-11T06:49:32.249Z,77.13
2022-08-11T06:50:32.122Z,76.12
2022-08-11T06:51:32.491Z,75.51
2022-08-11T06:52:35.682Z,75.81
2022-08-11T06:53:32.096Z,75.98
2022-08-11T06:54:32.076Z,75.48
2022-08-11T06:55:57.563Z,75.68
2022-08-11T06:56:32.074Z,75.68
2022-08-11T06:57:32.031Z,75.13
2022-08-11T06:58:32.030Z,74.73
2022-08-11T06:59:32.004Z,74.33
2022-08-11T07:00:33.123Z,73.42
2022-08-11T07:01:32.057Z,73.02
2022-08-11T07:02:32.111Z,73.32
2022-08-11T07:03:31.942Z,73.93
2022-08-11T07:04:31.967Z,74.22
2022-08-11T07:05:31.923Z,74.29
2022-08-11T07:06:34.510Z,73.99
2022-08-11T07:07:31.927Z,75.10
2022-08-11T07:08:34.507Z,75.20
2022-08-11T07:09:31.868Z,73.89
2022-08-11T07:10:31.851Z,73.38
2022-08-11T07:11:31.837Z,73.05
2022-08-11T07:12:31.859Z,74.05
2022-08-11T07:13:45.068Z,73.85
2022-08-11T07:14:36.360Z,73.65
2022-08-11T07:16:11.575Z,74.12
2022-08-11T07:16:31.823Z,73.42
2022-08-11T07:17:31.798Z,71.91
2022-08-11T07:18:31.774Z,71.97
2022-08-11T07:19:31.737Z,71.77
2022-08-11T07:20:31.752Z,71.06
2022-08-11T07:22:00.210Z,71.26
2022-08-11T07:22:31.748Z,71.77
2022-08-11T07:23:31.673Z,70.97
2022-08-11T07:24:58.567Z,70.97
2022-08-11T07:25:31.668Z,70.97
2022-08-11T07:26:31.651Z,70.97
2022-08-11T07:27:35.442Z,71.33
2022-08-11T07:28:31.624Z,71.03
2022-08-11T07:29:31.599Z,71.44
2022-08-11T07:30:31.619Z,70.22
2022-08-11T07:31:31.583Z,72.04
2022-08-11T07:32:31.589Z,69.52
2022-08-11T07:34:07.191Z,69.42
2022-08-11T07:34:31.535Z,70.73
2022-08-11T07:35:31.550Z,70.02
2022-08-11T07:36:31.506Z,71.03
2022-08-11T07:37:31.490Z,69.79
2022-08-11T07:38:31.472Z,69.49
2022-08-11T07:39:31.577Z,69.59
2022-08-11T07:40:31.477Z,69.99
2022-08-11T07:41:31.488Z,70.19
2022-08-11T07:42:31.456Z,69.59
2022-08-11T07:43:31.394Z,70.06
2022-08-11T07:44:35.150Z,69.85
2022-08-11T07:45:31.373Z,69.25
2022-08-11T07:46:31.382Z,69.45
2022-08-11T07:47:31.349Z,70.66
2022-08-11T07:48:31.346Z,69.56
2022-08-11T07:49:31.334Z,68.82
2022-08-11T07:50:31.309Z,68.62
2022-08-11T07:51:31.321Z,68.62
2022-08-11T07:52:31.287Z,69.42
2022-08-11T07:53:31.267Z,70.23
2022-08-11T07:54:33.461Z,69.38
2022-08-11T07:55:50.977Z,68.08
2022-08-11T07:56:54.282Z,68.28
2022-08-11T07:58:00.188Z,68.18
2022-08-11T07:58:34.790Z,68.59
2022-08-11T07:59:57.540Z,67.68
2022-08-11T08:00:31.201Z,67.68
2022-08-11T08:01:31.184Z,67.35
2022-08-11T08:02:31.144Z,68.35
2022-08-11T08:03:31.135Z,68.65
2022-08-11T08:04:31.121Z,68.45
2022-08-11T08:05:31.128Z,67.55
2022-08-11T08:06:36.075Z,65.84
2022-08-11T08:07:31.099Z,66.91
2022-08-11T08:08:31.065Z,66.11
2022-08-11T08:09:31.067Z,66.20
2022-08-11T08:10:31.079Z,65.70
2022-08-11T08:11:31.046Z,66.61
2022-08-11T08:12:31.017Z,66.31
2022-08-11T08:13:30.987Z,67.68
2022-08-11T08:14:30.983Z,66.38
2022-08-11T08:15:30.964Z,67.08
2022-08-11T08:16:31.036Z,66.17
2022-08-11T08:17:30.939Z,66.08
2022-08-11T08:18:30.931Z,65.97
2022-08-11T08:23:33.272Z,66.31
2022-08-11T08:24:33.769Z,66.01
2022-08-11T08:25:33.760Z,66.41
2022-08-11T08:26:33.755Z,65.01
2022-08-11T08:27:33.763Z,65.51
2022-08-11T08:28:33.758Z,65.21
2022-08-11T08:29:33.734Z,63.20
2022-08-11T08:30:33.708Z,64.21
2022-08-11T08:31:33.683Z,64.71
2022-08-11T08:32:33.867Z,65.21
2022-08-11T08:33:33.652Z,66.82
2022-08-11T08:34:33.714Z,66.58
2022-08-11T08:35:33.636Z,65.18
2022-08-11T08:36:33.612Z,64.48
2022-08-11T08:37:46.420Z,65.18
2022-08-11T08:38:33.586Z,64.75
2022-08-11T08:39:33.669Z,64.54
2022-08-11T08:40:33.553Z,64.84
2022-08-11T08:41:33.588Z,65.05
2022-08-11T08:42:33.622Z,65.25
2022-08-11T08:43:48.407Z,65.12
2022-08-11T08:44:41.691Z,65.12
2022-08-11T08:45:33.497Z,65.72
2022-08-11T08:46:33.483Z,65.59
2022-08-11T08:47:43.076Z,64.48
2022-08-11T08:48:33.456Z,64.09
2022-08-11T08:49:33.433Z,62.78
2022-08-11T08:50:33.427Z,64.18
2022-08-11T08:51:54.858Z,63.95
2022-08-11T08:52:37.278Z,62.95
2022-08-11T08:53:33.493Z,65.45
2022-08-11T08:54:33.361Z,64.75
2022-08-11T08:55:33.361Z,63.75
2022-08-11T08:56:33.338Z,64.12
2022-08-11T08:57:39.147Z,63.02
2022-08-11T08:58:33.344Z,62.02
2022-08-11T08:59:44.907Z,62.72
2022-08-11T09:00:33.288Z,64.52
2022-08-11T09:01:33.342Z,64.83
2022-08-11T09:02:34.348Z,63.49
2022-08-11T09:04:04.958Z,62.59
2022-08-11T09:04:33.264Z,63.19
2022-08-11T09:05:33.218Z,62.89
2022-08-11T09:06:33.232Z,61.89
2022-08-11T09:07:39.203Z,63.49
2022-08-11T09:08:33.184Z,64.16
2022-08-11T09:09:33.164Z,62.76
2022-08-11T09:10:33.193Z,62.46
2022-08-11T09:11:33.152Z,61.87
2022-08-11T09:12:35.684Z,62.26
2022-08-11T09:13:33.178Z,62.43
2022-08-11T09:14:33.247Z,61.54
2022-08-11T09:15:33.081Z,61.04
2022-08-11T09:16:33.098Z,61.41
2022-08-11T09:17:33.146Z,61.80
2022-08-11T09:18:33.829Z,60.21
2022-08-11T09:19:33.026Z,61.60
2022-08-11T09:20:33.052Z,61.71
2022-08-11T09:21:48.297Z,61.30
2022-08-11T09:22:33.063Z,62.20
2022-08-11T09:24:32.990Z,60.48
2022-08-11T09:25:32.950Z,61.08
2022-08-11T09:26:32.934Z,61.27
2022-08-11T09:27:32.917Z,60.65
2022-08-11T09:28:32.939Z,60.75
2022-08-11T09:29:33.097Z,59.75
2022-08-11T09:30:32.973Z,59.65
2022-08-11T09:31:37.277Z,60.75
2022-08-11T09:32:32.874Z,60.85
2022-08-11T09:33:32.869Z,61.61
2022-08-11T09:34:32.882Z,61.61
2022-08-11T09:35:32.828Z,59.52
2022-08-11T09:36:32.822Z,60.09
2022-08-11T09:37:55.418Z,60.29
2022-08-11T09:38:32.808Z,59.99
2022-08-11T09:39:32.791Z,59.86
2022-08-11T09:40:32.765Z,59.96
2022-08-11T09:41:55.628Z,58.37
2022-08-11T09:42:32.737Z,58.47
2022-08-11T09:43:32.732Z,59.44
2022-08-11T09:44:32.742Z,56.95
2022-08-11T09:45:35.910Z,56.87
2022-08-11T09:46:32.714Z,57.67
2022-08-11T09:47:32.660Z,57.75
2022-08-11T09:48:32.667Z,56.95
2022-08-11T09:49:32.633Z,58.44
2022-08-11T09:50:32.617Z,59.64
2022-08-11T09:51:32.608Z,56.23
2022-08-11T09:52:32.627Z,56.72
2022-08-11T09:53:36.198Z,57.92
2022-08-11T09:54:32.573Z,58.22
2022-08-11T09:55:32.584Z,56.49
2022-08-11T09:56:32.549Z,56.40
2022-08-11T09:57:32.574Z,56.07
2022-08-11T09:58:42.697Z,55.87
2022-08-11T09:59:32.514Z,54.78
2022-08-11T10:00:32.499Z,54.97
2022-08-11T10:01:32.633Z,55.55
2022-08-11T10:02:32.485Z,54.95
2022-08-11T10:03:32.447Z,55.74
2022-08-11T10:04:32.434Z,54.72
2022-08-11T10:05:32.420Z,53.93
2022-08-11T10:06:33.185Z,54.03
2022-08-11T10:07:32.409Z,52.54
2022-08-11T10:08:32.390Z,52.74
2022-08-11T10:09:32.361Z,53.63
2022-08-11T10:10:32.383Z,53.04
2022-08-11T10:11:32.332Z,55.00
2022-08-11T10:12:32.367Z,52.42
2022-08-11T10:14:32.131Z,53.21
2022-08-11T10:14:43.971Z,53.58
2022-08-11T10:15:32.290Z,53.28
2022-08-11T10:16:32.308Z,51.77
2022-08-11T10:17:32.257Z,50.28
2022-08-11T10:18:32.262Z,51.28
2022-08-11T10:19:32.227Z,50.09
2022-08-11T10:20:32.376Z,51.35
2022-08-11T10:21:32.233Z,51.25
2022-08-11T10:22:33.028Z,50.95
2022-08-11T10:23:34.581Z,50.06
2022-08-11T10:24:53.181Z,50.46
2022-08-11T10:26:00.088Z,49.94
2022-08-11T10:26:32.171Z,49.34
2022-08-11T10:28:17.044Z,48.55
2022-08-11T10:28:49.748Z,48.35
2022-08-11T10:29:35.276Z,48.85
2022-08-11T10:30:32.090Z,48.55
2022-08-11T10:31:39.566Z,49.74
2022-08-11T10:32:32.056Z,49.64
2022-08-11T10:33:37.201Z,49.44
2022-08-11T10:34:32.065Z,49.42
2022-08-11T10:35:32.020Z,47.93
2022-08-11T10:36:32.008Z,48.03
2022-08-11T10:38:15.741Z,48.53
2022-08-11T10:38:31.992Z,48.82
2022-08-11T10:39:32.058Z,48.70
2022-08-11T10:40:31.949Z,49.69
2022-08-11T10:41:31.957Z,47.00
2022-08-11T10:42:55.229Z,46.50
2022-08-11T10:44:01.897Z,46.40
2022-08-11T10:44:31.924Z,46.80
2022-08-11T10:45:31.879Z,47.69
2022-08-11T10:46:31.886Z,47.47
2022-08-11T10:47:31.903Z,46.67
2022-08-11T10:48:31.868Z,47.47
2022-08-11T10:49:31.838Z,45.47
2022-08-11T10:50:31.820Z,45.96
2022-08-11T10:51:50.963Z,45.96
2022-08-11T10:52:31.806Z,45.47
2022-08-11T10:53:31.788Z,45.67
2022-08-11T10:54:31.776Z,45.67
2022-08-11T10:55:31.748Z,44.78
2022-08-11T10:56:31.879Z,44.85
2022-08-11T10:57:31.727Z,44.46
2022-08-11T10:58:31.788Z,44.85
2022-08-11T10:59:31.706Z,44.65
2022-08-11T11:00:31.688Z,45.25
2022-08-11T11:01:31.871Z,44.34
2022-08-11T11:02:31.659Z,43.94
2022-08-11T11:03:31.650Z,45.42
2022-08-11T11:04:34.112Z,44.71
2022-08-11T11:05:31.618Z,43.92
2022-08-11T11:06:31.639Z,44.22
2022-08-11T11:07:31.591Z,43.52
2022-08-11T11:08:31.616Z,43.33
2022-08-11T11:09:31.569Z,43.60
2022-08-11T11:10:31.567Z,43.70
2022-08-11T11:11:31.551Z,43.60
2022-08-11T11:12:31.530Z,43.90
2022-08-11T11:13:31.539Z,44.07
2022-08-11T11:14:31.503Z,42.79
2022-08-11T11:15:31.491Z,43.19
2022-08-11T11:16:31.477Z,43.59
2022-08-11T11:17:31.464Z,42.50
2022-08-11T11:18:31.570Z,43.07
2022-08-11T11:19:31.467Z,42.77
2022-08-11T11:20:37.742Z,42.38
2022-08-11T11:21:31.414Z,42.68
2022-08-11T11:22:31.419Z,42.38
2022-08-11T11:23:31.404Z,42.65
2022-08-11T11:24:31.376Z,42.16
2022-08-11T11:25:31.395Z,41.38
2022-08-11T11:26:31.345Z,41.77
2022-08-11T11:27:31.341Z,42.26
2022-08-11T11:28:31.312Z,41.27
2022-08-11T11:29:31.316Z,42.08
2022-08-11T11:30:31.302Z,41.89
2022-08-11T11:31:31.297Z,41.20
2022-08-11T11:32:31.279Z,41.59
2022-08-11T11:33:31.251Z,41.20
2022-08-11T11:34:31.261Z,41.96
2022-08-11T11:35:31.228Z,43.44
2022-08-11T11:36:31.213Z,41.55
2022-08-11T11:37:31.229Z,41.25
2022-08-11T11:38:31.257Z,42.24
2022-08-11T11:39:31.250Z,41.06
2022-08-11T11:40:32.015Z,40.64
2022-08-11T11:41:31.164Z,41.04
2022-08-11T11:42:31.145Z,40.94
2022-08-11T11:43:31.114Z,40.45
2022-08-11T11:44:31.109Z,40.84
2022-08-11T11:45:31.119Z,40.84
2022-08-11T11:46:31.106Z,41.83
2022-08-11T11:47:31.096Z,40.94
2022-08-11T11:48:31.073Z,40.74
2022-08-11T11:49:31.045Z,39.95
2022-08-11T11:50:31.819Z,41.14
2022-08-11T11:51:31.048Z,41.14
2022-08-11T11:52:30.998Z,41.80
2022-08-11T11:53:30.990Z,40.92
2022-08-11T11:54:30.977Z,39.94
2022-08-11T11:55:30.964Z,39.94
2022-08-11T11:56:30.985Z,40.23
2022-08-11T11:57:30.939Z,40.13
2022-08-11T11:58:30.942Z,41.02
2022-08-11T11:59:30.921Z,41.00
2022-08-11T12:00:33.477Z,40.61
2022-08-11T12:01:30.891Z,39.90
2022-08-11T12:02:30.871Z,40.48
2022-08-11T12:03:30.940Z,40.48
2022-08-11T12:04:30.873Z,38.42
2022-08-11T12:05:30.852Z,38.32
2022-08-11T12:06:30.827Z,38.62
2022-08-11T12:07:30.810Z,39.31
2022-08-11T12:08:30.825Z,40.51
2022-08-11T12:09:30.812Z,40.80
2022-08-11T12:10:30.812Z,40.51
2022-08-11T12:11:30.755Z,40.00
2022-08-11T12:12:30.734Z,41.27
2022-08-11T12:13:30.793Z,39.98
2022-08-11T12:14:30.716Z,40.66
2022-08-11T12:16:06.509Z,40.06
2022-08-11T12:16:39.688Z,39.56
2022-08-11T12:17:30.763Z,40.25
2022-08-11T12:18:30.662Z,39.56
2022-08-11T12:19:35.825Z,39.95
2022-08-11T12:20:32.146Z,38.48
2022-08-11T12:21:30.623Z,38.29
2022-08-11T12:22:30.621Z,39.76
2022-08-11T12:23:30.589Z,39.17
2022-08-11T12:24:30.613Z,38.09
2022-08-11T12:25:30.568Z,38.21
2022-08-11T12:26:30.573Z,38.31
2022-08-11T12:27:30.544Z,39.39
2022-08-11T12:28:30.556Z,39.29
2022-08-11T12:29:30.575Z,39.00
2022-08-11T12:30:30.594Z,38.70
2022-08-11T12:31:30.502Z,40.25
2022-08-11T12:32:30.508Z,38.68
2022-08-11T12:33:30.466Z,38.29
2022-08-11T12:34:30.456Z,37.50
2022-08-11T12:35:30.429Z,38.68
2022-08-11T12:36:30.436Z,38.80
2022-08-11T12:37:30.584Z,37.92
2022-08-11T12:38:30.458Z,38.39
2022-08-11T12:40:15.705Z,38.88
2022-08-11T12:41:11.722Z,37.99
2022-08-11T12:41:30.412Z,37.40
2022-08-11T12:42:30.352Z,37.60
2022-08-11T12:43:37.876Z,37.29
2022-08-11T12:44:30.353Z,38.27
2022-08-11T12:45:30.319Z,37.48
2022-08-11T12:46:30.306Z,37.48
2022-08-11T12:47:30.296Z,36.99
2022-08-11T12:48:59.137Z,38.25
2022-08-11T12:49:30.280Z,37.17
2022-08-11T12:50:30.243Z,38.35
2022-08-11T12:51:30.274Z,37.96
2022-08-11T12:52:30.349Z,37.15
2022-08-11T12:53:30.218Z,36.47
2022-08-11T12:54:30.202Z,36.18
2022-08-11T12:55:30.179Z,36.27
2022-08-11T12:56:30.200Z,35.68
2022-08-11T12:57:37.143Z,36.57